Aeroporto :
LOGIN :

Iscrizione | Disclaimer

   EN    FR    IT 

 










Sommario :    VFR   VFR Marginale   IFR   IFR Intensivo   IFR Molto Intensivo
Visibilità : 
Base nubi : 
>= 8 km
>= 3000ft
5 / 8 km
1000 / 3000 ft
1500m / 5 km
500 / 1000 ft
800 / 1500m
200 / 500 ft
< 800m
< 200 ft
Simboli :   Temporali  Nebbia  Neve Forte  Precipitazioni Forti  Vento > 20 kt
SIGMETs :   Varie  Temporali  Ghiacco  Turbolenza  Onda orograficha  Ceneri Vulcaniche







- Altitudine del aeroporto : 160 ft
- Codice IATA : LRT
- Carte del aeroporto


LFRH - Lorient Lann Bihoue

ULTIMO METAR :
  • 191300Z AUTO 34010KT 300V010 9999 VCTS SCT038/// SCT045/// BKN060/// ///CB 17/09 Q1010 TEMPO 3000 SHRA

METARs OBSOLETI :
  • 191230Z AUTO 32010KT 290V360 9999 VCTS FEW037/// BKN052/// BKN180/// ///CB 18/11 Q1010 TEMPO 3000 SHRA
  • 191200Z AUTO 33008KT 290V010 9999 FEW032/// SCT048/// BKN110/// ///CB 17/10 Q1010 TEMPO 3000 SHRA
  • 191130Z AUTO 32009KT 9999 SCT031/// SCT042/// BKN070/// ///CB 17/11 Q1010 TEMPO 3000 SHRA
  • 191100Z AUTO 35008KT 300V020 9999 FEW027/// SCT035/// BKN200/// ///CB 17/11 Q1010 TEMPO SHRA
  • 191030Z AUTO 31007KT 280V350 9999 FEW025/// SCT030/// BKN035/// ///TCU 16/11 Q1010 TEMPO SHRA
  • 191000Z AUTO 32008KT 290V350 9999 BKN023 BKN029 BKN130 16/11 Q1010 TEMPO SHRA BKN020TCU

TAF AMD TAF LFRH
Valido dal 19 a 12 ore il 20 a 12 ore UTC


191252Z 1912/2012 32010KT 9999 BKN025
TEMPO 1912/1918 5000 TSRA BKN020CB
TEMPO 2003/2006 2000 BR BKN005
Nessun NOTAM noto per questo aeroporto.



MetMap, La meteo Aeronautica in un colpo d'occhio ! - Copyright ORBIFLY Dicembre 2007 - Disclaimer

ORBIFLY MET'MAP TEAM :

Programmazione e sviluppo : Alexandra Zaïnal
Concezione e sviluppo : Baudouin d'Aumeries
Co-Programmazione e sviluppo : Marc-Olivier Méhu
Supporto tecnico e logistico : Manuel Goepfert
Aiuto per la traduzione : Arnaldo La Scala

Contatto : metmap@orbifly.com




FONTI E CREDITI :

   NOAA